createdAt,value
2022-09-17T00:01:31.147Z,84
2022-09-17T00:02:37.651Z,84
2022-09-17T00:03:44.694Z,85
2022-09-17T00:04:51.838Z,85
2022-09-17T00:05:58.942Z,85
2022-09-17T00:07:05.979Z,85
2022-09-17T00:08:12.570Z,85
2022-09-17T00:09:19.707Z,85
2022-09-17T00:10:26.786Z,85
2022-09-17T00:11:33.893Z,85
2022-09-17T00:12:41.017Z,85
2022-09-17T00:13:47.733Z,85
2022-09-17T00:14:54.750Z,85
2022-09-17T00:16:01.959Z,85
2022-09-17T00:17:08.892Z,85
2022-09-17T00:18:15.995Z,85
2022-09-17T00:19:23.206Z,85
2022-09-17T00:20:29.726Z,86
2022-09-17T00:21:36.827Z,86
2022-09-17T00:22:43.871Z,86
2022-09-17T00:23:51.056Z,86
2022-09-17T00:26:04.730Z,86
2022-09-17T00:27:11.856Z,86
2022-09-17T00:28:18.946Z,86
2022-09-17T00:29:26.347Z,86
2022-09-17T00:30:32.736Z,86
2022-09-17T00:31:39.861Z,86
2022-09-17T00:32:46.787Z,86
2022-09-17T00:33:53.887Z,86
2022-09-17T00:35:00.547Z,86
2022-09-17T00:36:07.608Z,86
2022-09-17T00:37:14.749Z,86
2022-09-17T00:38:21.840Z,87
2022-09-17T00:39:28.918Z,87
2022-09-17T00:40:35.617Z,87
2022-09-17T00:41:42.648Z,87
2022-09-17T00:42:50.772Z,87
2022-09-17T00:43:56.867Z,87
2022-09-17T00:45:06.307Z,86
2022-09-17T00:46:10.587Z,86
2022-09-17T00:47:17.668Z,86
2022-09-17T00:48:24.762Z,86
2022-09-17T00:49:31.857Z,86
2022-09-17T00:50:38.990Z,86
2022-09-17T00:51:45.570Z,86
2022-09-17T00:52:53.307Z,86
2022-09-17T00:53:59.749Z,86
2022-09-17T00:55:06.852Z,86
2022-09-17T00:56:13.940Z,86
2022-09-17T00:57:20.534Z,86
2022-09-17T00:58:27.749Z,85
2022-09-17T00:59:34.781Z,85
2022-09-17T01:00:41.913Z,85
2022-09-17T01:01:49.061Z,85
2022-09-17T01:02:56.407Z,85
2022-09-17T01:05:09.764Z,85
2022-09-17T01:07:23.977Z,86
2022-09-17T01:08:30.593Z,86
2022-09-17T01:10:44.792Z,86
2022-09-17T01:11:51.932Z,86
2022-09-17T01:12:59.016Z,86
2022-09-17T01:14:05.698Z,86
2022-09-17T01:15:12.706Z,86
2022-09-17T01:16:20.066Z,86
2022-09-17T01:17:26.939Z,86
2022-09-17T01:18:33.934Z,86
2022-09-17T01:19:40.627Z,87
2022-09-17T01:21:54.851Z,87
2022-09-17T01:23:01.940Z,87
2022-09-17T01:24:09.559Z,87
2022-09-17T01:25:15.599Z,87
2022-09-17T01:26:22.711Z,87
2022-09-17T01:27:29.791Z,87
2022-09-17T01:28:36.891Z,87
2022-09-17T01:29:43.986Z,87
2022-09-17T01:30:50.647Z,87
2022-09-17T01:31:57.706Z,87
2022-09-17T01:33:04.851Z,87
2022-09-17T01:34:11.925Z,87
2022-09-17T01:35:19.035Z,87
2022-09-17T01:36:25.650Z,87
2022-09-17T01:37:32.766Z,87
2022-09-17T01:38:39.826Z,87
2022-09-17T01:39:46.888Z,87
2022-09-17T01:40:54.027Z,87
2022-09-17T01:42:00.558Z,87
2022-09-17T01:43:07.715Z,87
2022-09-17T01:44:14.860Z,87
2022-09-17T01:45:21.900Z,87
2022-09-17T01:46:28.613Z,87
2022-09-17T01:49:49.857Z,87
2022-09-17T01:50:56.915Z,87
2022-09-17T01:52:03.541Z,86
2022-09-17T01:53:10.654Z,86
2022-09-17T01:54:17.748Z,86
2022-09-17T01:55:24.855Z,86
2022-09-17T01:56:32.034Z,86
2022-09-17T01:57:38.578Z,86
2022-09-17T01:58:45.659Z,86
2022-09-17T01:59:52.777Z,86
2022-09-17T02:00:59.951Z,86
2022-09-17T02:02:07.157Z,86
2022-09-17T02:03:13.512Z,86
2022-09-17T02:04:20.686Z,86
2022-09-17T02:05:28.798Z,86
2022-09-17T02:06:34.996Z,86
2022-09-17T02:07:41.928Z,86
2022-09-17T02:08:50.030Z,86
2022-09-17T02:09:55.627Z,86
2022-09-17T02:11:02.769Z,86
2022-09-17T02:12:09.851Z,86
2022-09-17T02:13:16.961Z,86
2022-09-17T02:14:24.059Z,87
2022-09-17T02:15:30.629Z,87
2022-09-17T02:16:37.716Z,87
2022-09-17T02:17:45.025Z,87
2022-09-17T02:18:51.994Z,87
2022-09-17T02:19:58.591Z,87
2022-09-17T02:21:05.636Z,87
2022-09-17T02:22:12.752Z,87
2022-09-17T02:23:21.444Z,87
2022-09-17T02:24:27.030Z,87
2022-09-17T02:25:33.568Z,87
2022-09-17T02:27:47.787Z,87
2022-09-17T02:30:02.020Z,87
2022-09-17T02:31:08.625Z,87
2022-09-17T02:32:15.667Z,87
2022-09-17T02:33:22.807Z,87
2022-09-17T02:34:29.891Z,86
2022-09-17T02:35:37.066Z,86
2022-09-17T02:36:43.587Z,86
2022-09-17T02:38:57.829Z,86
2022-09-17T02:40:04.954Z,85
2022-09-17T02:41:12.039Z,86
2022-09-17T02:42:18.610Z,86
2022-09-17T02:43:25.792Z,86
2022-09-17T02:44:32.867Z,86
2022-09-17T02:45:39.946Z,86
2022-09-17T02:46:47.625Z,86
2022-09-17T02:47:53.604Z,86
2022-09-17T02:49:00.637Z,86
2022-09-17T02:50:07.784Z,86
2022-09-17T02:51:15.420Z,86
2022-09-17T02:52:21.529Z,86
2022-09-17T02:53:28.632Z,86
2022-09-17T02:54:35.863Z,86
2022-09-17T02:55:42.849Z,86
2022-09-17T02:56:49.990Z,86
2022-09-17T02:57:56.465Z,86
2022-09-17T02:59:03.588Z,86
2022-09-17T03:00:10.701Z,86
2022-09-17T03:01:18.496Z,86
2022-09-17T03:02:24.990Z,86
2022-09-17T03:03:31.529Z,86
2022-09-17T03:04:38.651Z,86
2022-09-17T03:05:45.770Z,86
2022-09-17T03:06:52.899Z,86
2022-09-17T03:08:00.117Z,86
2022-09-17T03:09:06.508Z,86
2022-09-17T03:11:20.723Z,86
2022-09-17T03:12:27.961Z,86
2022-09-17T03:13:34.975Z,86
2022-09-17T03:14:41.577Z,86
2022-09-17T03:15:48.693Z,86
2022-09-17T03:16:55.803Z,86
2022-09-17T03:18:03.585Z,87
2022-09-17T03:19:10.500Z,87
2022-09-17T03:20:16.677Z,87
2022-09-17T03:21:23.646Z,87
2022-09-17T03:22:30.722Z,88
2022-09-17T03:23:37.877Z,88
2022-09-17T03:24:44.979Z,88
2022-09-17T03:25:51.589Z,89
2022-09-17T03:26:58.707Z,89
2022-09-17T03:28:06.297Z,89
2022-09-17T03:29:12.897Z,89
2022-09-17T03:31:26.717Z,90
2022-09-17T03:32:33.637Z,90
2022-09-17T03:33:40.757Z,90
2022-09-17T03:34:47.956Z,90
2022-09-17T03:35:54.405Z,90
2022-09-17T03:37:01.540Z,90
2022-09-17T03:38:08.715Z,90
2022-09-17T03:39:15.766Z,90
2022-09-17T03:40:23.036Z,90
2022-09-17T03:41:29.961Z,90
2022-09-17T03:42:36.627Z,90
2022-09-17T03:43:43.663Z,90
2022-09-17T03:44:50.786Z,90
2022-09-17T03:45:57.895Z,89
2022-09-17T03:47:04.973Z,89
2022-09-17T03:48:11.529Z,89
2022-09-17T03:49:18.716Z,89
2022-09-17T03:50:25.779Z,89
2022-09-17T03:52:40.061Z,89
2022-09-17T03:53:46.607Z,89
2022-09-17T03:54:53.727Z,89
2022-09-17T03:56:00.809Z,89
2022-09-17T03:57:07.928Z,89
2022-09-17T03:58:14.457Z,89
2022-09-17T03:59:21.619Z,89
2022-09-17T04:00:28.717Z,89
2022-09-17T04:01:35.922Z,89
2022-09-17T04:02:42.927Z,89
2022-09-17T04:03:49.527Z,88
2022-09-17T04:04:56.569Z,88
2022-09-17T04:07:11.547Z,88
2022-09-17T04:08:17.882Z,88
2022-09-17T04:09:26.731Z,88
2022-09-17T04:10:31.651Z,88
2022-09-17T04:11:38.715Z,88
2022-09-17T04:12:45.878Z,88
2022-09-17T04:13:52.891Z,88
2022-09-17T04:14:59.455Z,88
2022-09-17T04:16:06.700Z,88
2022-09-17T04:17:13.699Z,88
2022-09-17T04:18:22.105Z,88
2022-09-17T04:19:27.898Z,88
2022-09-17T04:20:34.493Z,88
2022-09-17T04:21:41.615Z,88
2022-09-17T04:22:48.805Z,88
2022-09-17T04:23:56.683Z,88
2022-09-17T04:25:02.964Z,88
2022-09-17T04:26:09.505Z,88
2022-09-17T04:27:16.627Z,88
2022-09-17T04:28:23.756Z,88
2022-09-17T04:29:30.916Z,88
2022-09-17T04:30:37.970Z,88
2022-09-17T04:31:44.542Z,88
2022-09-17T04:35:05.877Z,87
2022-09-17T04:36:12.991Z,87
2022-09-17T04:37:19.546Z,87
2022-09-17T04:38:26.632Z,87
2022-09-17T04:39:33.790Z,87
2022-09-17T04:40:41.054Z,87
2022-09-17T04:41:47.973Z,87
2022-09-17T04:44:01.582Z,87
2022-09-17T04:45:08.765Z,87
2022-09-17T04:46:15.904Z,87
2022-09-17T04:47:22.980Z,87
2022-09-17T04:48:29.571Z,87
2022-09-17T04:49:36.619Z,87
2022-09-17T04:50:44.219Z,87
2022-09-17T04:51:50.887Z,86
2022-09-17T04:52:57.506Z,86
2022-09-17T04:54:04.506Z,86
2022-09-17T04:55:11.600Z,86
2022-09-17T04:56:18.807Z,86
2022-09-17T04:57:25.863Z,86
2022-09-17T04:58:32.524Z,85
2022-09-17T04:59:39.607Z,85
2022-09-17T05:00:46.824Z,85
2022-09-17T05:01:53.865Z,85
2022-09-17T05:03:00.866Z,85
2022-09-17T05:04:08.084Z,85
2022-09-17T05:05:14.553Z,86
2022-09-17T05:06:21.668Z,86
2022-09-17T05:07:28.764Z,86
2022-09-17T05:08:35.966Z,86
2022-09-17T05:09:42.520Z,86
2022-09-17T05:11:56.738Z,86
2022-09-17T05:13:03.812Z,86
2022-09-17T05:14:10.927Z,87
2022-09-17T05:15:17.498Z,87
2022-09-17T05:16:24.747Z,87
2022-09-17T05:17:31.815Z,87
2022-09-17T05:18:38.806Z,87
2022-09-17T05:19:45.986Z,87
2022-09-17T05:20:52.441Z,87
2022-09-17T05:21:59.621Z,87
2022-09-17T05:23:06.754Z,87
2022-09-17T05:24:13.840Z,87
2022-09-17T05:25:20.929Z,87
2022-09-17T05:26:27.575Z,87
2022-09-17T05:27:34.577Z,88
2022-09-17T05:28:41.987Z,88
2022-09-17T05:29:48.882Z,88
2022-09-17T05:30:56.043Z,88
2022-09-17T05:32:03.550Z,88
2022-09-17T05:33:09.571Z,88
2022-09-17T05:35:23.997Z,88
2022-09-17T05:36:30.957Z,88
2022-09-17T05:38:44.589Z,88
2022-09-17T05:39:51.807Z,88
2022-09-17T05:40:58.886Z,88
2022-09-17T05:42:05.928Z,88
2022-09-17T05:43:12.507Z,89
2022-09-17T05:44:19.659Z,89
2022-09-17T05:45:27.786Z,89
2022-09-17T05:46:33.942Z,89
2022-09-17T05:47:40.957Z,89
2022-09-17T05:48:50.256Z,89
2022-09-17T05:49:54.656Z,89
2022-09-17T05:51:01.746Z,89
2022-09-17T05:52:08.885Z,89
2022-09-17T05:53:15.409Z,89
2022-09-17T05:54:22.555Z,89
2022-09-17T05:55:29.667Z,89
2022-09-17T05:56:36.760Z,89
2022-09-17T05:57:43.865Z,89
2022-09-17T05:58:50.587Z,89
2022-09-17T05:59:57.553Z,89
2022-09-17T06:01:04.588Z,89
2022-09-17T06:02:11.821Z,89
2022-09-17T06:03:19.697Z,89
2022-09-17T06:04:25.418Z,89
2022-09-17T06:05:32.610Z,89
2022-09-17T06:07:46.799Z,88
2022-09-17T06:08:53.958Z,88
2022-09-17T06:10:00.407Z,88
2022-09-17T06:11:07.581Z,88
2022-09-17T06:12:14.665Z,88
2022-09-17T06:13:21.759Z,88
2022-09-17T06:14:28.965Z,88
2022-09-17T06:15:35.988Z,88
2022-09-17T06:16:42.641Z,88
2022-09-17T06:17:49.648Z,88
2022-09-17T06:18:56.740Z,88
2022-09-17T06:20:03.892Z,88
2022-09-17T06:21:10.445Z,88
2022-09-17T06:22:17.540Z,88
2022-09-17T06:23:24.662Z,88
2022-09-17T06:24:31.760Z,88
2022-09-17T06:25:38.938Z,88
2022-09-17T06:26:45.461Z,88
2022-09-17T06:27:52.583Z,88
2022-09-17T06:28:59.766Z,88
2022-09-17T06:30:06.796Z,88
2022-09-17T06:31:13.910Z,88
2022-09-17T06:32:20.553Z,88
2022-09-17T06:33:27.558Z,89
2022-09-17T06:34:34.697Z,89
2022-09-17T06:35:41.761Z,89
2022-09-17T06:36:48.940Z,89
2022-09-17T06:37:55.477Z,89
2022-09-17T06:39:02.634Z,89
2022-09-17T06:40:09.821Z,89
2022-09-17T06:42:23.991Z,90
2022-09-17T06:43:30.504Z,90
2022-09-17T06:44:37.648Z,90
2022-09-17T06:45:44.724Z,90
2022-09-17T06:46:51.895Z,90
2022-09-17T06:47:58.935Z,90
2022-09-17T06:49:06.390Z,90
2022-09-17T06:50:12.636Z,90
2022-09-17T06:51:19.717Z,90
2022-09-17T06:52:26.842Z,90
2022-09-17T06:53:33.529Z,90
2022-09-17T06:54:41.286Z,90
2022-09-17T06:55:47.663Z,90
2022-09-17T06:56:54.146Z,90
2022-09-17T06:56:54.685Z,90
2022-09-17T06:58:01.814Z,91
2022-09-17T06:59:08.358Z,91
2022-09-17T07:00:15.668Z,91
2022-09-17T07:01:22.658Z,91
2022-09-17T07:02:29.818Z,91
2022-09-17T07:03:36.826Z,91
2022-09-17T07:04:43.426Z,91
2022-09-17T07:05:50.638Z,91
2022-09-17T07:06:57.653Z,91
2022-09-17T07:08:04.691Z,91
2022-09-17T07:09:11.289Z,92
2022-09-17T07:10:18.396Z,92
2022-09-17T07:11:25.587Z,92
2022-09-17T07:12:32.686Z,92
2022-09-17T07:13:39.776Z,92
2022-09-17T07:14:46.837Z,92
2022-09-17T07:15:53.520Z,92
2022-09-17T07:17:00.546Z,92
2022-09-17T07:18:07.680Z,93
2022-09-17T07:19:15.076Z,92
2022-09-17T07:20:21.901Z,93
2022-09-17T07:21:28.445Z,92
2022-09-17T07:22:35.637Z,93
2022-09-17T07:23:42.679Z,93
2022-09-17T07:24:49.849Z,93
2022-09-17T07:25:56.826Z,92
2022-09-17T07:27:03.998Z,93
2022-09-17T07:28:10.592Z,93
2022-09-17T07:29:17.685Z,93
2022-09-17T07:30:24.793Z,93
2022-09-17T07:31:31.982Z,93
2022-09-17T07:32:38.597Z,93
2022-09-17T07:33:45.699Z,93
2022-09-17T07:34:52.702Z,93
2022-09-17T07:38:13.627Z,93
2022-09-17T07:39:21.129Z,93
2022-09-17T07:40:27.814Z,93
2022-09-17T07:41:34.765Z,93
2022-09-17T07:42:41.901Z,93
2022-09-17T07:43:48.508Z,93
2022-09-17T07:46:02.763Z,94
2022-09-17T07:47:09.768Z,94
2022-09-17T07:48:16.826Z,93
2022-09-17T07:49:23.538Z,93
2022-09-17T07:50:30.611Z,93
2022-09-17T07:51:37.657Z,93
2022-09-17T07:52:44.878Z,93
2022-09-17T07:53:51.985Z,93
2022-09-17T07:54:58.610Z,93
2022-09-17T07:56:09.784Z,93
2022-09-17T07:57:12.716Z,93
2022-09-17T07:58:19.797Z,93
2022-09-17T07:59:26.924Z,93
2022-09-17T08:00:33.504Z,93
2022-09-17T08:01:40.770Z,93
2022-09-17T08:02:47.807Z,93
2022-09-17T08:03:54.924Z,93
2022-09-17T08:06:08.541Z,93
2022-09-17T08:07:15.592Z,93
2022-09-17T08:08:22.736Z,93
2022-09-17T08:09:30.676Z,93
2022-09-17T08:10:36.406Z,93
2022-09-17T08:11:56.321Z,93
2022-09-17T08:12:50.581Z,93
2022-09-17T08:13:57.830Z,93
2022-09-17T08:15:04.834Z,93
2022-09-17T08:16:12.039Z,93
2022-09-17T08:17:19.022Z,93
2022-09-17T08:18:25.552Z,93
2022-09-17T08:19:32.753Z,93
2022-09-17T08:20:39.794Z,93
2022-09-17T08:21:46.395Z,93
2022-09-17T08:22:53.588Z,93
2022-09-17T08:24:00.609Z,93
2022-09-17T08:25:07.845Z,93
2022-09-17T08:26:14.806Z,93
2022-09-17T08:27:21.467Z,93
2022-09-17T08:28:28.824Z,93
2022-09-17T08:29:35.783Z,93
2022-09-17T08:31:49.917Z,93
2022-09-17T08:32:56.422Z,93
2022-09-17T08:34:03.774Z,94
2022-09-17T08:35:10.618Z,93
2022-09-17T08:36:17.766Z,94
2022-09-17T08:37:24.867Z,94
2022-09-17T08:38:34.567Z,94
2022-09-17T08:39:38.697Z,94
2022-09-17T08:40:45.663Z,94
2022-09-17T08:41:52.728Z,94
2022-09-17T08:42:59.364Z,94
2022-09-17T08:44:06.470Z,94
2022-09-17T08:45:13.606Z,94
2022-09-17T08:46:20.705Z,94
2022-09-17T08:47:27.727Z,94
2022-09-17T08:49:41.438Z,93
2022-09-17T08:50:48.599Z,94
2022-09-17T08:51:55.687Z,94
2022-09-17T08:53:02.745Z,94
2022-09-17T08:54:09.876Z,94
2022-09-17T08:55:16.458Z,94
2022-09-17T08:56:23.578Z,94
2022-09-17T08:57:30.698Z,93
2022-09-17T08:59:44.358Z,93
2022-09-17T09:00:51.512Z,94
2022-09-17T09:01:58.634Z,94
2022-09-17T09:03:05.800Z,94
2022-09-17T09:04:12.789Z,94
2022-09-17T09:05:19.858Z,94
2022-09-17T09:06:26.522Z,94
2022-09-17T09:07:33.598Z,94
2022-09-17T09:08:40.737Z,94
2022-09-17T09:09:48.038Z,94
2022-09-17T09:10:54.338Z,94
2022-09-17T09:12:01.514Z,94
2022-09-17T09:13:08.629Z,94
2022-09-17T09:14:15.747Z,94
2022-09-17T09:15:22.829Z,94
2022-09-17T09:16:29.445Z,94
2022-09-17T09:17:36.480Z,94
2022-09-17T09:18:43.653Z,94
2022-09-17T09:19:50.739Z,93
2022-09-17T09:20:57.758Z,93
2022-09-17T09:22:04.412Z,93
2022-09-17T09:23:11.518Z,93
2022-09-17T09:24:18.618Z,93
2022-09-17T09:25:25.746Z,93
2022-09-17T09:26:32.838Z,93
2022-09-17T09:27:39.436Z,93
2022-09-17T09:28:46.507Z,93
2022-09-17T09:29:53.582Z,93
2022-09-17T09:31:02.351Z,93
2022-09-17T09:32:15.888Z,94
2022-09-17T09:33:14.391Z,94
2022-09-17T09:34:21.578Z,94
2022-09-17T09:36:35.723Z,95
2022-09-17T09:37:42.852Z,94
2022-09-17T09:38:50.463Z,94
2022-09-17T09:41:03.710Z,93
2022-09-17T09:42:10.713Z,94
2022-09-17T09:43:17.847Z,93
2022-09-17T09:44:24.438Z,94
2022-09-17T09:45:31.609Z,94
2022-09-17T09:46:38.690Z,94
2022-09-17T09:47:45.710Z,94
2022-09-17T09:48:52.302Z,93
2022-09-17T09:49:59.507Z,93
2022-09-17T09:51:07.299Z,93
2022-09-17T09:53:20.835Z,93
2022-09-17T09:54:27.347Z,93
2022-09-17T09:55:34.488Z,92
2022-09-17T09:56:41.570Z,92
2022-09-17T09:57:48.709Z,92
2022-09-17T10:00:03.000Z,91
2022-09-17T10:01:09.471Z,91
2022-09-17T10:02:16.655Z,91
2022-09-17T10:04:30.846Z,91
2022-09-17T10:05:37.936Z,91
2022-09-17T10:06:44.407Z,91
2022-09-17T10:07:51.523Z,91
2022-09-17T10:08:58.889Z,91
2022-09-17T10:10:05.756Z,91
2022-09-17T10:11:12.413Z,91
2022-09-17T10:12:19.430Z,91
2022-09-17T10:13:26.567Z,91
2022-09-17T10:14:33.691Z,91
2022-09-17T10:15:40.799Z,91
2022-09-17T10:16:47.874Z,91
2022-09-17T10:17:54.461Z,91
2022-09-17T10:19:01.508Z,91
2022-09-17T10:20:08.693Z,91
2022-09-17T10:22:22.414Z,91
2022-09-17T10:23:29.529Z,91
2022-09-17T10:24:36.608Z,91
2022-09-17T10:25:43.724Z,91
2022-09-17T10:26:50.843Z,91
2022-09-17T10:27:57.413Z,91
2022-09-17T10:29:04.473Z,91
2022-09-17T10:30:11.637Z,91
2022-09-17T10:32:25.826Z,91
2022-09-17T10:33:32.417Z,90
2022-09-17T10:34:39.498Z,90
2022-09-17T10:35:47.114Z,90
2022-09-17T10:36:53.723Z,90
2022-09-17T10:38:00.828Z,90
2022-09-17T10:39:07.376Z,90
2022-09-17T10:40:14.548Z,90
2022-09-17T10:41:21.719Z,90
2022-09-17T10:42:28.668Z,90
2022-09-17T10:43:35.852Z,90
2022-09-17T10:44:42.368Z,90
2022-09-17T10:45:49.555Z,90
2022-09-17T10:46:56.682Z,89
2022-09-17T10:48:03.739Z,89
2022-09-17T10:49:11.819Z,89
2022-09-17T10:50:17.550Z,89
2022-09-17T10:51:24.454Z,88
2022-09-17T10:52:31.622Z,88
2022-09-17T10:53:38.657Z,88
2022-09-17T10:54:45.890Z,88
2022-09-17T10:56:59.571Z,88
2022-09-17T10:58:06.688Z,88
2022-09-17T10:59:13.773Z,89
2022-09-17T11:00:20.923Z,88
2022-09-17T11:01:27.536Z,89
2022-09-17T11:03:43.263Z,89
2022-09-17T11:04:48.773Z,89
2022-09-17T11:05:55.813Z,89
2022-09-17T11:07:02.469Z,89
2022-09-17T11:08:09.538Z,89
2022-09-17T11:09:16.714Z,89
2022-09-17T11:10:23.732Z,89
2022-09-17T11:11:30.868Z,89
2022-09-17T11:12:37.475Z,89
2022-09-17T11:13:44.510Z,89
2022-09-17T11:14:51.792Z,89
2022-09-17T11:15:58.833Z,89
2022-09-17T11:17:05.318Z,89
2022-09-17T11:18:12.584Z,89
2022-09-17T11:19:19.625Z,89
2022-09-17T11:20:26.767Z,88
2022-09-17T11:21:33.735Z,88
2022-09-17T11:22:40.367Z,88
2022-09-17T11:23:47.459Z,88
2022-09-17T11:24:54.554Z,89
2022-09-17T11:26:01.868Z,89
2022-09-17T11:27:08.790Z,89
2022-09-17T11:28:15.899Z,88
2022-09-17T11:29:22.497Z,88
2022-09-17T11:30:29.590Z,88
2022-09-17T11:31:36.709Z,88
2022-09-17T11:32:43.782Z,88
2022-09-17T11:33:50.434Z,88
2022-09-17T11:34:57.478Z,88
2022-09-17T11:36:04.522Z,88
2022-09-17T11:37:11.680Z,88
2022-09-17T11:38:18.804Z,88
2022-09-17T11:39:25.435Z,87
2022-09-17T11:40:32.585Z,87
2022-09-17T11:41:39.593Z,87
2022-09-17T11:42:46.708Z,87
2022-09-17T11:45:00.342Z,86
2022-09-17T11:46:07.574Z,86
2022-09-17T11:47:14.630Z,86
2022-09-17T11:48:21.678Z,86
2022-09-17T11:49:28.859Z,86
2022-09-17T11:50:35.371Z,86
2022-09-17T11:51:42.456Z,85
2022-09-17T11:52:49.627Z,86
2022-09-17T11:53:56.741Z,85
2022-09-17T11:55:03.825Z,85
2022-09-17T11:56:10.420Z,85
2022-09-17T11:57:17.516Z,85
2022-09-17T11:58:24.584Z,85
2022-09-17T12:00:38.785Z,84
2022-09-17T12:02:52.559Z,84
2022-09-17T12:04:00.100Z,84
2022-09-17T12:05:06.803Z,84
2022-09-17T12:06:13.760Z,84
2022-09-17T12:07:20.428Z,84
2022-09-17T12:08:27.541Z,84
2022-09-17T12:09:34.621Z,84
2022-09-17T12:10:41.757Z,84
2022-09-17T12:11:48.852Z,84
2022-09-17T12:12:55.434Z,84
2022-09-17T12:14:02.491Z,84
2022-09-17T12:15:09.627Z,84
2022-09-17T12:16:16.827Z,85
2022-09-17T12:17:23.348Z,84
2022-09-17T12:18:32.599Z,84
2022-09-17T12:19:37.546Z,84
2022-09-17T12:20:45.521Z,84
2022-09-17T12:21:51.704Z,84
2022-09-17T12:22:58.336Z,84
2022-09-17T12:24:05.444Z,84
2022-09-17T12:26:19.720Z,83
2022-09-17T12:27:26.710Z,83
2022-09-17T12:28:33.366Z,83
2022-09-17T12:30:47.578Z,82
2022-09-17T12:31:54.602Z,82
2022-09-17T12:33:01.767Z,82
2022-09-17T12:34:08.470Z,82
2022-09-17T12:35:15.480Z,82
2022-09-17T12:36:22.557Z,82
2022-09-17T12:37:29.622Z,82
2022-09-17T12:38:36.806Z,81
2022-09-17T12:39:43.392Z,81
2022-09-17T12:40:50.479Z,80
2022-09-17T12:41:57.591Z,80
2022-09-17T12:43:04.649Z,80
2022-09-17T12:44:11.792Z,80
2022-09-17T12:45:18.358Z,80
2022-09-17T12:46:25.492Z,80
2022-09-17T12:47:32.568Z,80
2022-09-17T12:48:39.654Z,80
2022-09-17T12:49:46.275Z,80
2022-09-17T12:50:53.462Z,80
2022-09-17T12:52:00.468Z,80
2022-09-17T12:53:07.559Z,80
2022-09-17T12:54:14.678Z,79
2022-09-17T12:55:21.817Z,79
2022-09-17T12:56:28.412Z,79
2022-09-17T12:58:42.627Z,79
2022-09-17T12:59:49.699Z,79
2022-09-17T13:00:56.310Z,80
2022-09-17T13:02:03.482Z,80
2022-09-17T13:04:17.638Z,80
2022-09-17T13:05:24.776Z,80
2022-09-17T13:07:38.407Z,79
2022-09-17T13:08:45.489Z,79
2022-09-17T13:09:52.638Z,79
2022-09-17T13:10:59.752Z,79
2022-09-17T13:12:06.346Z,79
2022-09-17T13:13:13.433Z,79
2022-09-17T13:14:20.525Z,79
2022-09-17T13:15:27.606Z,79
2022-09-17T13:16:34.788Z,79
2022-09-17T13:17:41.313Z,78
2022-09-17T13:19:05.723Z,78
2022-09-17T13:19:55.500Z,78
2022-09-17T13:21:02.709Z,78
2022-09-17T13:22:09.673Z,78
2022-09-17T13:23:16.276Z,78
2022-09-17T13:24:23.438Z,78
2022-09-17T13:25:30.445Z,78
2022-09-17T13:26:37.671Z,78
2022-09-17T13:27:44.745Z,78
2022-09-17T13:28:51.305Z,78
2022-09-17T13:29:58.452Z,78
2022-09-17T13:31:05.595Z,78
2022-09-17T13:32:12.109Z,78
2022-09-17T13:33:19.781Z,78
2022-09-17T13:34:26.260Z,78
2022-09-17T13:35:33.400Z,78
2022-09-17T13:36:40.570Z,78
2022-09-17T13:37:47.638Z,78
2022-09-17T13:38:54.865Z,78
2022-09-17T13:40:01.425Z,78
2022-09-17T13:41:08.443Z,78
2022-09-17T13:42:15.659Z,78
2022-09-17T13:43:22.688Z,78
2022-09-17T13:44:29.799Z,78
2022-09-17T13:45:36.343Z,78
2022-09-17T13:46:43.510Z,78
2022-09-17T13:48:57.735Z,78
2022-09-17T13:50:04.805Z,78
2022-09-17T13:51:11.307Z,78
2022-09-17T13:52:18.416Z,78
2022-09-17T13:53:25.661Z,79
2022-09-17T13:54:32.687Z,78
2022-09-17T13:55:39.810Z,78
2022-09-17T13:56:46.276Z,78
2022-09-17T13:57:53.479Z,78
2022-09-17T13:59:00.539Z,79
2022-09-17T14:01:14.870Z,78
2022-09-17T14:02:21.456Z,79
2022-09-17T14:03:28.425Z,79
2022-09-17T14:04:35.547Z,78
2022-09-17T14:05:42.694Z,78
2022-09-17T14:07:56.429Z,78
2022-09-17T14:09:03.528Z,78
2022-09-17T14:10:10.586Z,78
2022-09-17T14:11:17.683Z,78
2022-09-17T14:12:24.818Z,78
2022-09-17T14:13:31.367Z,78
2022-09-17T14:14:38.493Z,78
2022-09-17T14:15:45.600Z,77
2022-09-17T14:16:52.712Z,77
2022-09-17T14:17:59.798Z,77
2022-09-17T14:19:07.077Z,77
2022-09-17T14:20:13.463Z,77
2022-09-17T14:21:20.610Z,77
2022-09-17T14:22:27.701Z,77
2022-09-17T14:24:41.396Z,77
2022-09-17T14:25:48.482Z,77
2022-09-17T14:26:55.644Z,77
2022-09-17T14:30:16.444Z,78
2022-09-17T14:31:23.569Z,78
2022-09-17T14:32:30.590Z,78
2022-09-17T14:33:37.750Z,78
2022-09-17T14:34:44.304Z,78
2022-09-17T14:35:51.496Z,78
2022-09-17T14:36:58.533Z,78
2022-09-17T14:38:05.663Z,78
2022-09-17T14:39:12.750Z,78
2022-09-17T14:40:19.592Z,79
2022-09-17T14:41:26.426Z,79
2022-09-17T14:42:33.549Z,79
2022-09-17T14:43:40.577Z,78
2022-09-17T14:44:47.660Z,78
2022-09-17T14:45:54.290Z,78
2022-09-17T14:47:01.495Z,78
2022-09-17T14:48:08.553Z,78
2022-09-17T14:49:15.599Z,78
2022-09-17T14:50:22.191Z,78
2022-09-17T14:51:29.364Z,78
2022-09-17T14:52:36.431Z,78
2022-09-17T14:53:43.542Z,78
2022-09-17T14:54:50.658Z,78
2022-09-17T14:57:04.374Z,78
2022-09-17T14:58:11.438Z,78
2022-09-17T14:59:18.607Z,78
2022-09-17T15:00:26.179Z,78
2022-09-17T15:01:32.811Z,78
2022-09-17T15:02:39.446Z,78
2022-09-17T15:03:46.466Z,78
2022-09-17T15:04:53.581Z,78
2022-09-17T15:06:00.579Z,79
2022-09-17T15:07:07.245Z,79
2022-09-17T15:08:14.271Z,79
2022-09-17T15:09:21.448Z,79
2022-09-17T15:11:35.686Z,80
2022-09-17T15:12:42.206Z,80
2022-09-17T15:13:50.224Z,80
2022-09-17T15:14:56.513Z,80
2022-09-17T15:16:03.652Z,80
2022-09-17T15:17:10.785Z,80
2022-09-17T15:18:17.283Z,80
2022-09-17T15:19:24.344Z,80
2022-09-17T15:20:31.467Z,80
2022-09-17T15:21:38.584Z,80
2022-09-17T15:22:45.688Z,80
2022-09-17T15:23:52.311Z,80
2022-09-17T15:24:59.375Z,81
2022-09-17T15:26:06.489Z,81
2022-09-17T15:27:13.593Z,81
2022-09-17T15:28:21.684Z,81
2022-09-17T15:29:27.870Z,81
2022-09-17T15:30:34.378Z,82
2022-09-17T15:31:41.533Z,82
2022-09-17T15:32:48.589Z,82
2022-09-17T15:33:55.726Z,82
2022-09-17T15:35:02.243Z,82
2022-09-17T15:36:09.350Z,82
2022-09-17T15:37:16.514Z,82
2022-09-17T15:38:24.227Z,82
2022-09-17T15:39:30.750Z,82
2022-09-17T15:40:37.448Z,82
2022-09-17T15:41:44.392Z,82
2022-09-17T15:42:51.504Z,82
2022-09-17T15:44:13.278Z,82
2022-09-17T15:45:06.587Z,81
2022-09-17T15:46:12.315Z,82
2022-09-17T15:47:19.431Z,82
2022-09-17T15:48:26.541Z,82
2022-09-17T15:49:33.649Z,82
2022-09-17T15:50:40.837Z,82
2022-09-17T15:52:54.401Z,82
2022-09-17T15:54:01.574Z,82
2022-09-17T15:55:08.679Z,82
2022-09-17T15:56:15.658Z,82
2022-09-17T15:57:22.341Z,82
2022-09-17T15:58:29.461Z,82
2022-09-17T15:59:36.579Z,82
2022-09-17T16:00:43.647Z,82
2022-09-17T16:01:50.853Z,82
2022-09-17T16:02:57.400Z,82
2022-09-17T16:04:04.346Z,83
2022-09-17T16:05:11.630Z,83
2022-09-17T16:06:18.638Z,83
2022-09-17T16:07:25.778Z,83
2022-09-17T16:08:32.243Z,83
2022-09-17T16:09:40.443Z,83
2022-09-17T16:10:46.574Z,83
2022-09-17T16:11:53.606Z,83
2022-09-17T16:13:00.187Z,84
2022-09-17T16:15:14.448Z,84
2022-09-17T16:16:21.616Z,84
2022-09-17T16:17:28.608Z,84
2022-09-17T16:18:35.270Z,84
2022-09-17T16:19:42.319Z,84
2022-09-17T16:20:49.466Z,84
2022-09-17T16:21:56.570Z,84
2022-09-17T16:23:03.600Z,84
2022-09-17T16:24:10.263Z,84
2022-09-17T16:25:17.349Z,84
2022-09-17T16:27:31.509Z,85
2022-09-17T16:28:38.685Z,85
2022-09-17T16:29:45.296Z,85
2022-09-17T16:30:52.396Z,85
2022-09-17T16:31:59.469Z,85
2022-09-17T16:34:13.639Z,85
2022-09-17T16:35:20.289Z,85
2022-09-17T16:36:27.418Z,85
2022-09-17T16:37:34.444Z,85
2022-09-17T16:38:41.595Z,85
2022-09-17T16:39:48.670Z,84
2022-09-17T16:40:55.278Z,84
2022-09-17T16:42:02.379Z,84
2022-09-17T16:43:09.490Z,84
2022-09-17T16:44:16.549Z,84
2022-09-17T16:45:28.652Z,84
2022-09-17T16:46:30.623Z,84
2022-09-17T16:47:37.399Z,85
2022-09-17T16:48:44.469Z,85
2022-09-17T16:49:51.596Z,85
2022-09-17T16:50:59.188Z,85
2022-09-17T16:52:05.293Z,85
2022-09-17T16:53:12.339Z,85
2022-09-17T16:55:26.653Z,86
2022-09-17T16:56:33.660Z,86
2022-09-17T16:57:40.259Z,86
2022-09-17T16:58:50.446Z,86
2022-09-17T16:59:54.528Z,86
2022-09-17T17:01:01.681Z,86